createdAt,value
2019-01-22T00:00:38.259Z,-2.38
2019-01-22T00:01:38.164Z,-2.48
2019-01-22T00:02:38.073Z,-2.42
2019-01-22T00:03:37.982Z,-2.41
2019-01-22T00:04:37.896Z,-2.47
2019-01-22T00:05:37.799Z,-2.60
2019-01-22T00:06:37.707Z,-2.62
2019-01-22T00:07:37.615Z,-2.65
2019-01-22T00:08:37.525Z,-2.59
2019-01-22T00:09:37.437Z,-2.59
2019-01-22T00:10:37.342Z,-2.53
2019-01-22T00:11:37.245Z,-2.62
2019-01-22T00:12:37.154Z,-2.59
2019-01-22T00:13:37.060Z,-2.62
2019-01-22T00:14:36.965Z,-2.65
2019-01-22T00:15:36.886Z,-2.76
2019-01-22T00:16:36.784Z,-2.76
2019-01-22T00:17:36.694Z,-2.73
2019-01-22T00:18:36.599Z,-2.77
2019-01-22T00:19:36.504Z,-2.80
2019-01-22T00:20:36.412Z,-2.94
2019-01-22T00:21:36.330Z,-2.95
2019-01-22T00:22:36.228Z,-2.80
2019-01-22T00:23:36.132Z,-2.77
2019-01-22T00:24:36.041Z,-2.94
2019-01-22T00:25:35.950Z,-2.86
2019-01-22T00:26:35.859Z,-2.91
2019-01-22T00:27:42.327Z,-2.99
2019-01-22T00:28:35.675Z,-2.99
2019-01-22T00:29:35.579Z,-2.89
2019-01-22T00:30:35.489Z,-2.94
2019-01-22T00:31:35.394Z,-2.91
2019-01-22T00:32:35.305Z,-2.92
2019-01-22T00:33:35.210Z,-2.77
2019-01-22T00:34:35.123Z,-2.81
2019-01-22T00:35:35.023Z,-2.83
2019-01-22T00:36:34.945Z,-2.92
2019-01-22T00:37:34.837Z,-2.83
2019-01-22T00:38:34.746Z,-2.78
2019-01-22T00:39:34.674Z,-2.77
2019-01-22T00:40:34.560Z,-2.78
2019-01-22T00:41:34.469Z,-2.76
2019-01-22T00:42:34.378Z,-2.77
2019-01-22T00:43:34.287Z,-2.77
2019-01-22T00:44:34.195Z,-2.77
2019-01-22T00:45:34.098Z,-2.94
2019-01-22T00:46:34.011Z,-2.91
2019-01-22T00:47:33.918Z,-2.89
2019-01-22T00:48:33.827Z,-2.86
2019-01-22T00:49:33.730Z,-2.91
2019-01-22T00:50:33.636Z,-2.92
2019-01-22T00:51:33.548Z,-2.83
2019-01-22T00:52:33.449Z,-2.92
2019-01-22T00:53:33.362Z,-2.92
2019-01-22T00:54:33.272Z,-2.91
2019-01-22T00:55:33.180Z,-2.91
2019-01-22T00:56:33.081Z,-2.84
2019-01-22T00:57:32.986Z,-3.01
2019-01-22T00:58:32.892Z,-2.99
2019-01-22T00:59:32.814Z,-3.06
2019-01-22T01:00:32.709Z,-3.12
2019-01-22T01:01:32.616Z,-3.15
2019-01-22T01:02:32.536Z,-3.27
2019-01-22T01:03:32.435Z,-3.33
2019-01-22T01:04:32.338Z,-3.38
2019-01-22T01:05:32.244Z,-3.31
2019-01-22T01:06:32.150Z,-3.37
2019-01-22T01:07:32.060Z,-3.30
2019-01-22T01:08:31.971Z,-3.31
2019-01-22T01:09:39.521Z,-3.27
2019-01-22T01:11:36.179Z,-3.22
2019-01-22T01:12:36.038Z,-3.17
2019-01-22T01:14:40.353Z,-3.12
2019-01-22T01:15:40.215Z,-3.09
2019-01-22T01:17:44.100Z,-3.10
2019-01-22T01:18:44.008Z,-3.15
2019-01-22T01:20:37.259Z,-3.07
2019-01-22T01:21:37.112Z,-3.10
2019-01-22T01:23:40.922Z,-3.09
2019-01-22T01:24:40.820Z,-3.06
2019-01-22T01:26:44.656Z,-3.02
2019-01-22T01:27:44.508Z,-2.98
2019-01-22T01:28:44.417Z,-3.06
2019-01-22T01:29:44.324Z,-3.13
2019-01-22T01:30:44.235Z,-3.09
2019-01-22T01:31:44.136Z,-3.04
2019-01-22T01:32:44.051Z,-3.07
2019-01-22T01:33:43.956Z,-3.01
2019-01-22T01:34:43.864Z,-3.17
2019-01-22T01:35:43.775Z,-3.20
2019-01-22T01:36:43.678Z,-3.19
2019-01-22T01:37:43.579Z,-3.28
2019-01-22T01:38:43.485Z,-3.15
2019-01-22T01:39:43.406Z,-3.17
2019-01-22T01:40:43.302Z,-3.20
2019-01-22T01:41:43.216Z,-3.17
2019-01-22T01:42:43.121Z,-3.12
2019-01-22T01:43:43.039Z,-3.13
2019-01-22T01:44:42.935Z,-3.13
2019-01-22T01:45:42.841Z,-3.23
2019-01-22T01:46:42.744Z,-3.17
2019-01-22T01:47:42.654Z,-3.16
2019-01-22T01:48:42.573Z,-3.15
2019-01-22T01:49:42.468Z,-3.15
2019-01-22T01:50:42.385Z,-3.12
2019-01-22T01:51:42.282Z,-3.19
2019-01-22T01:52:42.186Z,-3.16
2019-01-22T01:53:42.099Z,-3.27
2019-01-22T01:54:42.003Z,-3.30
2019-01-22T01:55:41.914Z,-3.34
2019-01-22T01:56:41.815Z,-3.38
2019-01-22T01:57:41.720Z,-3.55
2019-01-22T01:58:41.645Z,-3.51
2019-01-22T01:59:41.552Z,-3.48
2019-01-22T02:00:41.452Z,-3.48
2019-01-22T02:01:41.351Z,-3.54
2019-01-22T02:02:41.272Z,-3.64
2019-01-22T02:03:41.168Z,-3.54
2019-01-22T02:04:41.075Z,-3.61
2019-01-22T02:05:40.984Z,-3.83
2019-01-22T02:06:40.887Z,-3.82
2019-01-22T02:07:40.793Z,-3.96
2019-01-22T02:08:40.720Z,-4.10
2019-01-22T02:09:40.606Z,-4.06
2019-01-22T02:10:40.585Z,-4.12
2019-01-22T02:11:40.420Z,-4.07
2019-01-22T02:12:40.336Z,-3.99
2019-01-22T02:13:40.241Z,-4.04
2019-01-22T02:14:40.139Z,-3.96
2019-01-22T02:15:40.046Z,-4.04
2019-01-22T02:16:39.961Z,-3.98
2019-01-22T02:17:39.858Z,-3.96
2019-01-22T02:18:39.770Z,-3.98
2019-01-22T02:19:39.674Z,-3.99
2019-01-22T02:20:39.585Z,-3.96
2019-01-22T02:21:39.491Z,-3.86
2019-01-22T02:22:39.391Z,-3.88
2019-01-22T02:23:39.298Z,-3.82
2019-01-22T02:24:39.210Z,-3.78
2019-01-22T02:25:39.117Z,-3.78
2019-01-22T02:26:39.019Z,-3.74
2019-01-22T02:27:38.925Z,-3.66
2019-01-22T02:28:38.845Z,-3.61
2019-01-22T02:29:38.743Z,-3.58
2019-01-22T02:30:38.646Z,-3.58
2019-01-22T02:31:38.558Z,-3.48
2019-01-22T02:32:38.461Z,-3.52
2019-01-22T02:33:38.363Z,-3.44
2019-01-22T02:34:38.277Z,-3.56
2019-01-22T02:35:38.178Z,-3.70
2019-01-22T02:36:38.097Z,-3.83
2019-01-22T02:37:37.998Z,-3.80
2019-01-22T02:38:37.901Z,-3.83
2019-01-22T02:39:37.805Z,-3.82
2019-01-22T02:40:37.711Z,-3.72
2019-01-22T02:41:37.623Z,-3.80
2019-01-22T02:42:37.524Z,-3.80
2019-01-22T02:43:37.441Z,-3.80
2019-01-22T02:44:37.345Z,-3.80
2019-01-22T02:45:37.250Z,-3.70
2019-01-22T02:46:37.170Z,-3.56
2019-01-22T02:47:37.062Z,-3.63
2019-01-22T02:48:36.969Z,-3.64
2019-01-22T02:49:36.871Z,-3.61
2019-01-22T02:50:36.781Z,-3.64
2019-01-22T02:51:36.703Z,-3.61
2019-01-22T02:52:36.594Z,-3.56
2019-01-22T02:53:38.833Z,-3.59
2019-01-22T02:54:36.404Z,-3.69
2019-01-22T02:55:36.317Z,-3.66
2019-01-22T02:56:36.235Z,-3.59
2019-01-22T02:57:36.127Z,-3.56
2019-01-22T02:58:36.031Z,-3.52
2019-01-22T02:59:35.945Z,-3.38
2019-01-22T03:00:35.845Z,-3.45
2019-01-22T03:01:35.755Z,-3.35
2019-01-22T03:02:35.663Z,-3.38
2019-01-22T03:03:35.569Z,-3.41
2019-01-22T03:04:35.472Z,-3.31
2019-01-22T03:05:35.381Z,-3.31
2019-01-22T03:06:35.291Z,-3.31
2019-01-22T03:07:35.194Z,-3.15
2019-01-22T03:08:35.108Z,-3.13
2019-01-22T03:09:35.015Z,-3.07
2019-01-22T03:10:34.914Z,-3.12
2019-01-22T03:11:34.832Z,-3.07
2019-01-22T03:12:34.728Z,-3.10
2019-01-22T03:13:34.640Z,-3.10
2019-01-22T03:14:34.558Z,-3.12
2019-01-22T03:15:34.462Z,-3.07
2019-01-22T03:16:34.360Z,-3.09
2019-01-22T03:17:34.270Z,-3.06
2019-01-22T03:18:34.171Z,-3.01
2019-01-22T03:19:34.084Z,-2.88
2019-01-22T03:20:33.991Z,-2.88
2019-01-22T03:21:33.905Z,-2.86
2019-01-22T03:22:33.805Z,-2.92
2019-01-22T03:23:33.712Z,-2.95
2019-01-22T03:24:33.621Z,-2.95
2019-01-22T03:25:33.530Z,-2.78
2019-01-22T03:26:33.435Z,-2.81
2019-01-22T03:27:33.344Z,-2.89
2019-01-22T03:28:33.247Z,-2.83
2019-01-22T03:29:33.158Z,-2.95
2019-01-22T03:30:33.070Z,-2.81
2019-01-22T03:31:32.992Z,-2.81
2019-01-22T03:32:32.884Z,-2.88
2019-01-22T03:33:32.789Z,-2.83
2019-01-22T03:34:32.713Z,-2.86
2019-01-22T03:35:32.608Z,-2.78
2019-01-22T03:36:32.514Z,-2.88
2019-01-22T03:37:32.421Z,-2.92
2019-01-22T03:38:32.324Z,-2.94
2019-01-22T03:39:32.235Z,-2.91
2019-01-22T03:40:32.144Z,-2.98
2019-01-22T03:41:32.051Z,-2.97
2019-01-22T03:42:31.959Z,-2.92
2019-01-22T03:43:31.866Z,-2.92
2019-01-22T03:44:31.786Z,-2.92
2019-01-22T03:45:31.684Z,-2.80
2019-01-22T03:46:31.591Z,-2.83
2019-01-22T03:47:31.496Z,-2.91
2019-01-22T03:48:31.403Z,-2.95
2019-01-22T03:49:31.317Z,-2.92
2019-01-22T03:50:31.215Z,-2.92
2019-01-22T03:51:31.126Z,-2.89
2019-01-22T03:52:31.037Z,-3.01
2019-01-22T03:53:30.945Z,-2.84
2019-01-22T03:54:30.849Z,-3.04
2019-01-22T03:55:30.757Z,-2.95
2019-01-22T03:56:30.663Z,-3.01
2019-01-22T03:57:30.572Z,-3.02
2019-01-22T03:58:30.484Z,-3.06
2019-01-22T03:59:30.398Z,-3.06
2019-01-22T04:00:30.294Z,-3.01
2019-01-22T04:01:30.209Z,-3.07
2019-01-22T04:02:30.110Z,-2.97
2019-01-22T04:03:30.020Z,-3.02
2019-01-22T04:04:29.923Z,-3.10
2019-01-22T04:05:29.838Z,-3.09
2019-01-22T04:06:29.738Z,-3.09
2019-01-22T04:07:29.647Z,-3.04
2019-01-22T04:08:29.559Z,-3.07
2019-01-22T04:09:29.467Z,-3.07
2019-01-22T04:10:29.368Z,-3.09
2019-01-22T04:11:29.281Z,-2.98
2019-01-22T04:12:29.199Z,-3.06
2019-01-22T04:13:29.098Z,-3.12
2019-01-22T04:14:29.006Z,-3.07
2019-01-22T04:15:28.911Z,-3.07
2019-01-22T04:16:28.817Z,-3.09
2019-01-22T04:17:28.724Z,-3.06
2019-01-22T04:18:28.630Z,-3.02
2019-01-22T04:19:28.544Z,-3.02
2019-01-22T04:20:28.452Z,-2.86
2019-01-22T04:21:28.359Z,-2.89
2019-01-22T04:22:28.275Z,-2.88
2019-01-22T04:23:28.173Z,-2.91
2019-01-22T04:24:28.079Z,-2.83
2019-01-22T04:25:27.990Z,-2.81
2019-01-22T04:26:27.897Z,-2.78
2019-01-22T04:27:27.812Z,-2.86
2019-01-22T04:28:27.714Z,-2.78
2019-01-22T04:29:27.624Z,-2.91
2019-01-22T04:30:27.541Z,-2.91
2019-01-22T04:31:27.439Z,-2.78
2019-01-22T04:32:27.342Z,-2.78
2019-01-22T04:33:27.252Z,-2.77
2019-01-22T04:34:27.162Z,-2.70
2019-01-22T04:35:27.068Z,-2.63
2019-01-22T04:36:26.971Z,-2.74
2019-01-22T04:37:26.914Z,-2.65
2019-01-22T04:38:26.791Z,-2.65
2019-01-22T04:39:26.703Z,-2.62
2019-01-22T04:40:26.605Z,-2.59
2019-01-22T04:41:26.514Z,-2.48
2019-01-22T04:42:26.422Z,-2.63
2019-01-22T04:43:26.335Z,-2.52
2019-01-22T04:44:26.237Z,-2.42
2019-01-22T04:45:26.154Z,-2.52
2019-01-22T04:46:26.056Z,-2.48
2019-01-22T04:47:25.965Z,-2.47
2019-01-22T04:48:25.868Z,-2.47
2019-01-22T04:49:25.825Z,-2.40
2019-01-22T04:50:25.683Z,-2.44
2019-01-22T04:51:25.597Z,-2.41
2019-01-22T04:52:25.510Z,-2.41
2019-01-22T04:53:25.412Z,-2.40
2019-01-22T04:54:25.325Z,-2.42
2019-01-22T04:55:25.223Z,-2.40
2019-01-22T04:56:25.137Z,-2.37
2019-01-22T04:57:25.054Z,-2.30
2019-01-22T04:58:24.949Z,-2.32
2019-01-22T04:59:24.864Z,-2.30
2019-01-22T05:00:24.771Z,-2.38
2019-01-22T05:01:24.676Z,-2.34
2019-01-22T05:02:24.584Z,-2.23
2019-01-22T05:03:24.494Z,-2.37
2019-01-22T05:04:24.408Z,-2.28
2019-01-22T05:05:24.313Z,-2.26
2019-01-22T05:06:24.265Z,-2.26
2019-01-22T05:07:24.123Z,-2.21
2019-01-22T05:08:24.037Z,-2.19
2019-01-22T05:09:23.946Z,-2.18
2019-01-22T05:10:23.869Z,-2.18
2019-01-22T05:11:23.761Z,-2.16
2019-01-22T05:12:23.673Z,-2.26
2019-01-22T05:13:23.581Z,-2.21
2019-01-22T05:14:23.481Z,-2.35
2019-01-22T05:15:23.400Z,-2.18
2019-01-22T05:16:23.305Z,-2.23
2019-01-22T05:17:23.233Z,-2.21
2019-01-22T05:18:23.119Z,-2.19
2019-01-22T05:19:23.034Z,-2.18
2019-01-22T05:20:22.938Z,-2.12
2019-01-22T05:21:22.847Z,-2.16
2019-01-22T05:22:22.756Z,-2.10
2019-01-22T05:23:22.663Z,-2.19
2019-01-22T05:24:22.575Z,-2.12
2019-01-22T05:25:22.473Z,-2.16
2019-01-22T05:26:22.386Z,-2.13
2019-01-22T05:27:22.290Z,-2.12
2019-01-22T05:28:22.204Z,-2.16
2019-01-22T05:29:22.113Z,-2.10
2019-01-22T05:30:22.027Z,-2.19
2019-01-22T05:31:21.930Z,-2.10
2019-01-22T05:32:21.834Z,-2.08
2019-01-22T05:33:21.742Z,-2.02
2019-01-22T05:34:21.661Z,-2.02
2019-01-22T05:35:21.558Z,-2.07
2019-01-22T05:36:21.475Z,-2.16
2019-01-22T05:37:21.379Z,-2.13
2019-01-22T05:38:21.285Z,-2.12
2019-01-22T05:39:21.194Z,-2.19
2019-01-22T05:40:21.100Z,-2.22
2019-01-22T05:41:21.014Z,-2.35
2019-01-22T05:42:20.920Z,-2.26
2019-01-22T05:43:20.842Z,-2.37
2019-01-22T05:44:20.741Z,-2.41
2019-01-22T05:45:20.649Z,-2.35
2019-01-22T05:46:20.555Z,-2.42
2019-01-22T05:47:20.461Z,-2.37
2019-01-22T05:48:20.392Z,-2.40
2019-01-22T05:49:20.285Z,-2.30
2019-01-22T05:50:20.243Z,-2.26
2019-01-22T05:51:20.099Z,-2.26
2019-01-22T05:52:20.009Z,-2.30
2019-01-22T05:53:19.919Z,-2.25
2019-01-22T05:54:25.165Z,-2.22
2019-01-22T05:55:19.730Z,-2.16
2019-01-22T05:56:19.638Z,-2.23
2019-01-22T05:57:19.552Z,-2.15
2019-01-22T05:58:19.465Z,-2.02
2019-01-22T05:59:19.368Z,-2.00
2019-01-22T06:00:19.276Z,-2.01
2019-01-22T06:01:19.184Z,-2.07
2019-01-22T06:02:19.090Z,-2.01
2019-01-22T06:03:18.996Z,-1.94
2019-01-22T06:04:18.917Z,-1.94
2019-01-22T06:05:18.818Z,-1.92
2019-01-22T06:06:18.722Z,-1.90
2019-01-22T06:07:18.631Z,-1.98
2019-01-22T06:08:18.545Z,-2.08
2019-01-22T06:09:18.453Z,-1.97
2019-01-22T06:10:18.363Z,-1.98
2019-01-22T06:11:18.277Z,-2.01
2019-01-22T06:12:18.176Z,-1.97
2019-01-22T06:13:18.082Z,-1.98
2019-01-22T06:14:17.998Z,-1.98
2019-01-22T06:15:17.904Z,-1.95
2019-01-22T06:16:17.813Z,-1.87
2019-01-22T06:17:17.721Z,-1.87
2019-01-22T06:18:17.632Z,-1.86
2019-01-22T06:19:17.547Z,-1.89
2019-01-22T06:20:17.447Z,-1.83
2019-01-22T06:21:17.382Z,-1.83
2019-01-22T06:22:17.404Z,-1.80
2019-01-22T06:23:17.178Z,-2.00
2019-01-22T06:24:17.085Z,-1.92
2019-01-22T06:25:17.042Z,-1.94
2019-01-22T06:26:16.916Z,-1.87
2019-01-22T06:27:16.809Z,-1.95
2019-01-22T06:28:16.721Z,-2.00
2019-01-22T06:29:16.623Z,-1.95
2019-01-22T06:30:16.532Z,-1.98
2019-01-22T06:31:16.441Z,-2.00
2019-01-22T06:32:16.354Z,-1.97
2019-01-22T06:33:16.258Z,-1.92
2019-01-22T06:34:16.178Z,-1.89
2019-01-22T06:35:16.081Z,-1.97
2019-01-22T06:36:15.998Z,-1.97
2019-01-22T06:37:15.911Z,-1.98
2019-01-22T06:38:15.806Z,-1.94
2019-01-22T06:39:15.710Z,-2.05
2019-01-22T06:40:15.629Z,-2.00
2019-01-22T06:41:15.545Z,-2.01
2019-01-22T06:42:15.449Z,-1.94
2019-01-22T06:43:15.350Z,-2.02
2019-01-22T06:44:15.256Z,-1.92
2019-01-22T06:45:15.201Z,-1.89
2019-01-22T06:46:15.078Z,-1.86
2019-01-22T06:47:14.986Z,-1.95
2019-01-22T06:48:14.891Z,-1.94
2019-01-22T06:49:14.804Z,-1.92
2019-01-22T06:50:14.709Z,-1.89
2019-01-22T06:51:14.618Z,-1.86
2019-01-22T06:52:14.525Z,-1.89
2019-01-22T06:53:14.439Z,-1.87
2019-01-22T06:54:14.354Z,-1.90
2019-01-22T06:55:14.253Z,-1.83
2019-01-22T06:56:14.167Z,-1.86
2019-01-22T06:57:14.074Z,-1.86
2019-01-22T06:58:13.984Z,-1.86
2019-01-22T06:59:13.906Z,-1.87
2019-01-22T07:00:13.799Z,-1.76
2019-01-22T07:01:13.706Z,-1.82
2019-01-22T07:02:13.621Z,-1.83
2019-01-22T07:03:13.527Z,-1.79
2019-01-22T07:04:13.435Z,-1.72
2019-01-22T07:05:13.342Z,-1.71
2019-01-22T07:06:13.257Z,-1.69
2019-01-22T07:07:13.158Z,-1.72
2019-01-22T07:08:13.074Z,-1.71
2019-01-22T07:09:12.980Z,-1.65
2019-01-22T07:10:13.156Z,-1.76
2019-01-22T07:11:12.804Z,-1.76
2019-01-22T07:12:12.728Z,-1.74
2019-01-22T07:13:12.616Z,-1.84
2019-01-22T07:14:12.527Z,-1.71
2019-01-22T07:15:12.433Z,-1.84
2019-01-22T07:16:12.435Z,-1.77
2019-01-22T07:17:12.266Z,-1.72
2019-01-22T07:18:12.162Z,-1.80
2019-01-22T07:19:12.077Z,-1.77
2019-01-22T07:20:11.977Z,-1.71
2019-01-22T07:21:11.889Z,-1.74
2019-01-22T07:22:11.810Z,-1.76
2019-01-22T07:23:11.708Z,-1.79
2019-01-22T07:24:11.615Z,-1.79
2019-01-22T07:25:11.524Z,-1.68
2019-01-22T07:26:11.436Z,-1.71
2019-01-22T07:27:11.344Z,-1.69
2019-01-22T07:28:11.258Z,-1.74
2019-01-22T07:29:11.166Z,-1.62
2019-01-22T07:30:11.066Z,-1.61
2019-01-22T07:31:10.977Z,-1.61
2019-01-22T07:32:10.887Z,-1.61
2019-01-22T07:33:10.793Z,-1.58
2019-01-22T07:34:10.701Z,-1.56
2019-01-22T07:35:10.614Z,-1.58
2019-01-22T07:36:10.519Z,-1.48
2019-01-22T07:37:10.438Z,-1.46
2019-01-22T07:38:10.344Z,-1.46
2019-01-22T07:39:10.258Z,-1.47
2019-01-22T07:40:10.155Z,-1.50
2019-01-22T07:41:10.072Z,-1.43
2019-01-22T07:42:09.981Z,-1.43
2019-01-22T07:43:09.893Z,-1.46
2019-01-22T07:44:09.793Z,-1.38
2019-01-22T07:45:09.719Z,-1.47
2019-01-22T07:46:09.620Z,-1.46
2019-01-22T07:47:09.526Z,-1.41
2019-01-22T07:48:09.446Z,-1.33
2019-01-22T07:49:09.350Z,-1.33
2019-01-22T07:50:09.251Z,-1.29
2019-01-22T07:51:09.155Z,-1.41
2019-01-22T07:52:09.066Z,-1.33
2019-01-22T07:53:08.980Z,-1.29
2019-01-22T07:54:08.884Z,-1.32
2019-01-22T07:55:08.803Z,-1.30
2019-01-22T07:56:08.702Z,-1.23
2019-01-22T07:57:08.611Z,-1.27
2019-01-22T07:58:08.521Z,-1.25
2019-01-22T07:59:08.430Z,-1.27
2019-01-22T08:00:08.344Z,-1.22
2019-01-22T08:01:08.251Z,-1.11
2019-01-22T08:02:08.156Z,-1.27
2019-01-22T08:03:08.080Z,-1.20
2019-01-22T08:04:07.977Z,-1.20
2019-01-22T08:05:07.917Z,-1.32
2019-01-22T08:06:07.801Z,-1.32
2019-01-22T08:07:07.705Z,-1.27
2019-01-22T08:08:07.617Z,-1.20
2019-01-22T08:09:07.522Z,-1.23
2019-01-22T08:10:07.459Z,-1.30
2019-01-22T08:11:07.360Z,-1.25
2019-01-22T08:12:07.257Z,-1.25
2019-01-22T08:13:07.172Z,-1.20
2019-01-22T08:14:07.081Z,-1.23
2019-01-22T08:15:06.982Z,-1.20
2019-01-22T08:16:06.896Z,-1.25
2019-01-22T08:17:06.798Z,-1.22
2019-01-22T08:18:06.723Z,-1.25
2019-01-22T08:19:06.621Z,-1.32
2019-01-22T08:20:06.540Z,-1.25
2019-01-22T08:21:06.435Z,-1.37
2019-01-22T08:22:06.344Z,-1.27
2019-01-22T08:23:06.269Z,-1.26
2019-01-22T08:24:06.163Z,-1.27
2019-01-22T08:25:06.072Z,-1.23
2019-01-22T08:26:05.994Z,-1.22
2019-01-22T08:27:05.897Z,-1.15
2019-01-22T08:28:05.812Z,-1.17
2019-01-22T08:29:05.716Z,-1.12
2019-01-22T08:30:05.622Z,-1.20
2019-01-22T08:31:05.533Z,-1.11
2019-01-22T08:32:05.464Z,-1.14
2019-01-22T08:33:05.354Z,-1.17
2019-01-22T08:34:05.265Z,-1.08
2019-01-22T08:35:05.172Z,-1.08
2019-01-22T08:36:05.083Z,-1.04
2019-01-22T08:37:04.989Z,-1.05
2019-01-22T08:38:04.903Z,-1.12
2019-01-22T08:39:04.804Z,-1.09
2019-01-22T08:40:04.715Z,-1.04
2019-01-22T08:41:04.628Z,-0.97
2019-01-22T08:42:04.535Z,-1.11
2019-01-22T08:43:04.443Z,-1.08
2019-01-22T08:44:04.353Z,-1.08
2019-01-22T08:45:04.275Z,-1.12
2019-01-22T08:46:04.175Z,-1.12
2019-01-22T08:47:04.084Z,-1.11
2019-01-22T08:48:03.997Z,-1.07
2019-01-22T08:49:03.897Z,-1.09
2019-01-22T08:50:03.815Z,-1.05
2019-01-22T08:51:03.721Z,-1.12
2019-01-22T08:52:03.640Z,-1.08
2019-01-22T08:53:03.574Z,-1.12
2019-01-22T08:54:03.453Z,-1.11
2019-01-22T08:55:08.104Z,-1.19
2019-01-22T08:56:03.266Z,-1.22
2019-01-22T08:57:03.174Z,-1.23
2019-01-22T08:58:03.105Z,-1.17
2019-01-22T08:59:03.015Z,-1.20
2019-01-22T09:00:02.905Z,-1.19
2019-01-22T09:01:02.830Z,-1.23
2019-01-22T09:02:02.734Z,-1.23
2019-01-22T09:03:02.634Z,-1.19
2019-01-22T09:04:02.585Z,-1.14
2019-01-22T09:05:02.465Z,-1.09
2019-01-22T09:06:02.365Z,-1.14
2019-01-22T09:07:02.274Z,-1.25
2019-01-22T09:08:02.181Z,-1.27
2019-01-22T09:09:02.239Z,-1.22
2019-01-22T09:10:02.008Z,-1.38
2019-01-22T09:11:01.908Z,-1.33
2019-01-22T09:12:01.818Z,-1.33
2019-01-22T09:13:01.749Z,-1.35
2019-01-22T09:14:01.639Z,-1.35
2019-01-22T09:15:01.604Z,-1.33
2019-01-22T09:16:01.460Z,-1.33
2019-01-22T09:17:02.361Z,-1.40
2019-01-22T09:18:01.274Z,-1.33
2019-01-22T09:19:01.181Z,-1.41
2019-01-22T09:20:01.099Z,-1.29
2019-01-22T09:21:01.031Z,-1.32
2019-01-22T09:22:00.905Z,-1.37
2019-01-22T09:23:00.813Z,-1.22
2019-01-22T09:24:01.796Z,-1.23
2019-01-22T09:25:00.634Z,-1.23
2019-01-22T09:26:00.541Z,-1.14
2019-01-22T09:27:00.456Z,-1.12
2019-01-22T09:28:00.359Z,-1.14
2019-01-22T09:29:00.272Z,-1.12
2019-01-22T09:30:00.180Z,-1.08
2019-01-22T09:31:00.093Z,-1.01
2019-01-22T09:32:00.005Z,-1.08
2019-01-22T09:32:59.905Z,-1.07
2019-01-22T09:33:59.836Z,-1.04
2019-01-22T09:34:59.733Z,-1.15
2019-01-22T09:35:59.638Z,-1.08
2019-01-22T09:36:59.546Z,-1.09
2019-01-22T09:37:59.450Z,-1.17
2019-01-22T09:38:59.360Z,-1.15
2019-01-22T09:39:59.280Z,-1.15
2019-01-22T09:40:59.206Z,-1.15
2019-01-22T09:41:59.099Z,-1.09
2019-01-22T09:42:59.003Z,-1.08
2019-01-22T09:43:58.910Z,-1.17
2019-01-22T09:44:58.816Z,-1.25
2019-01-22T09:45:58.727Z,-1.37
2019-01-22T09:46:58.646Z,-1.30
2019-01-22T09:47:58.545Z,-1.30
2019-01-22T09:48:58.457Z,-1.33
2019-01-22T09:49:58.366Z,-1.30
2019-01-22T09:50:58.275Z,-1.30
2019-01-22T09:51:58.180Z,-1.30
2019-01-22T09:52:58.089Z,-1.29
2019-01-22T09:53:58.004Z,-1.29
2019-01-22T09:54:57.925Z,-1.29
2019-01-22T09:56:00.884Z,-1.26
2019-01-22T09:56:57.756Z,-1.25
2019-01-22T09:57:57.645Z,-1.20
2019-01-22T09:58:57.547Z,-1.23
2019-01-22T09:59:57.466Z,-1.26
2019-01-22T10:00:57.366Z,-1.17
2019-01-22T10:01:57.272Z,-1.22
2019-01-22T10:02:57.186Z,-1.37
2019-01-22T10:04:03.189Z,-1.29
2019-01-22T10:04:57.000Z,-1.35
2019-01-22T10:05:56.910Z,-1.30
2019-01-22T10:06:56.865Z,-1.30
2019-01-22T10:07:56.727Z,-1.29
2019-01-22T10:08:56.648Z,-1.26
2019-01-22T10:09:56.565Z,-1.29
2019-01-22T10:10:56.457Z,-1.27
2019-01-22T10:11:56.361Z,-1.19
2019-01-22T10:12:56.278Z,-1.19
2019-01-22T10:13:56.188Z,-1.12
2019-01-22T10:14:56.091Z,-1.19
2019-01-22T10:15:55.999Z,-1.17
2019-01-22T10:16:55.908Z,-1.19
2019-01-22T10:17:55.818Z,-1.27
2019-01-22T10:18:55.724Z,-1.12
2019-01-22T10:19:55.635Z,-1.22
2019-01-22T10:20:55.544Z,-1.25
2019-01-22T10:21:55.452Z,-1.25
2019-01-22T10:22:55.369Z,-1.30
2019-01-22T10:23:55.272Z,-1.33
2019-01-22T10:24:55.187Z,-1.27
2019-01-22T10:25:55.098Z,-1.32
2019-01-22T10:26:54.997Z,-1.29
2019-01-22T10:27:54.912Z,-1.32
2019-01-22T10:28:54.820Z,-1.19
2019-01-22T10:29:54.728Z,-1.15
2019-01-22T10:30:54.637Z,-1.11
2019-01-22T10:31:54.553Z,-1.08
2019-01-22T10:32:54.461Z,-1.15
2019-01-22T10:33:54.360Z,-1.20
2019-01-22T10:34:54.313Z,-1.12
2019-01-22T10:35:54.177Z,-1.20
2019-01-22T10:36:54.105Z,-1.11
2019-01-22T10:37:54.010Z,-1.19
2019-01-22T10:38:53.905Z,-1.23
2019-01-22T10:39:53.817Z,-1.19
2019-01-22T10:40:53.730Z,-1.20
2019-01-22T10:41:53.632Z,-1.15
2019-01-22T10:42:53.561Z,-1.17
2019-01-22T10:43:53.459Z,-1.22
2019-01-22T10:44:53.364Z,-1.22
2019-01-22T10:45:53.273Z,-1.23
2019-01-22T10:46:53.179Z,-1.17
2019-01-22T10:47:53.118Z,-1.20
2019-01-22T10:48:52.995Z,-1.17
2019-01-22T10:49:52.910Z,-1.12
2019-01-22T10:50:52.831Z,-1.11
2019-01-22T10:51:52.722Z,-1.09
2019-01-22T10:52:52.631Z,-1.05
2019-01-22T10:53:52.551Z,-1.05
2019-01-22T10:54:52.495Z,-0.99
2019-01-22T10:55:52.358Z,-1.04
2019-01-22T10:56:52.267Z,-0.91
2019-01-22T10:57:52.182Z,-0.82
2019-01-22T10:58:52.091Z,-0.97
2019-01-22T10:59:52.003Z,-0.89
2019-01-22T11:00:51.904Z,-0.93
2019-01-22T11:01:51.812Z,-0.80
2019-01-22T11:02:51.730Z,-0.83
2019-01-22T11:03:51.644Z,-0.86
2019-01-22T11:04:51.550Z,-0.85
2019-01-22T11:05:51.453Z,-0.77
2019-01-22T11:06:51.359Z,-0.72
2019-01-22T11:07:51.270Z,-0.71
2019-01-22T11:08:51.180Z,-0.68
2019-01-22T11:09:51.089Z,-0.75
2019-01-22T11:10:52.096Z,-0.70
2019-01-22T11:11:50.915Z,-0.70
2019-01-22T11:12:50.816Z,-0.71
2019-01-22T11:13:50.738Z,-0.70
2019-01-22T11:14:50.636Z,-0.70
2019-01-22T11:15:50.550Z,-0.65
2019-01-22T11:16:50.471Z,-0.68
2019-01-22T11:17:50.374Z,-0.65
2019-01-22T11:18:50.281Z,-0.61
2019-01-22T11:19:50.185Z,-0.62
2019-01-22T11:20:50.101Z,-0.64
2019-01-22T11:21:50.010Z,-0.61
2019-01-22T11:22:49.916Z,-0.67
2019-01-22T11:23:49.822Z,-0.65
2019-01-22T11:24:52.802Z,-0.67
2019-01-22T11:25:49.651Z,-0.65
2019-01-22T11:26:49.552Z,-0.59
2019-01-22T11:27:49.481Z,-0.61
2019-01-22T11:28:49.373Z,-0.61
2019-01-22T11:29:49.280Z,-0.54
2019-01-22T11:30:49.625Z,-0.52
2019-01-22T11:31:49.105Z,-0.59
2019-01-22T11:32:49.009Z,-0.59
2019-01-22T11:33:48.928Z,-0.67
2019-01-22T11:34:48.832Z,-0.56
2019-01-22T11:35:48.739Z,-0.61
2019-01-22T11:36:48.658Z,-0.67
2019-01-22T11:37:48.558Z,-0.65
2019-01-22T11:38:48.476Z,-0.65
2019-01-22T11:39:48.380Z,-0.57
2019-01-22T11:40:48.292Z,-0.53
2019-01-22T11:41:48.205Z,-0.54
2019-01-22T11:42:48.124Z,-0.56
2019-01-22T11:43:48.033Z,-0.53
2019-01-22T11:44:47.931Z,-0.56
2019-01-22T11:45:47.854Z,-0.52
2019-01-22T11:46:47.749Z,-0.61
2019-01-22T11:47:47.668Z,-0.62
2019-01-22T11:48:47.620Z,-0.62
2019-01-22T11:49:47.477Z,-0.68
2019-01-22T11:50:47.446Z,-0.68
2019-01-22T11:51:47.295Z,-0.70
2019-01-22T11:52:47.205Z,-0.74
2019-01-22T11:53:47.127Z,-0.68
2019-01-22T11:54:47.026Z,-0.61
2019-01-22T11:55:50.557Z,-0.67
2019-01-22T11:56:46.843Z,-0.61
2019-01-22T11:57:46.755Z,-0.68
2019-01-22T11:58:46.668Z,-0.61
2019-01-22T11:59:46.584Z,-0.59
2019-01-22T12:00:46.487Z,-0.57
2019-01-22T12:01:46.399Z,-0.54
2019-01-22T12:02:46.313Z,-0.64
2019-01-22T12:03:46.217Z,-0.70
2019-01-22T12:04:46.126Z,-0.78
2019-01-22T12:05:46.032Z,-0.80
2019-01-22T12:06:45.953Z,-0.80
2019-01-22T12:07:45.853Z,-0.86
2019-01-22T12:08:45.768Z,-0.93
2019-01-22T12:09:45.670Z,-0.82
2019-01-22T12:10:45.582Z,-0.91
2019-01-22T12:11:45.496Z,-0.86
2019-01-22T12:12:45.404Z,-0.86
2019-01-22T12:13:45.332Z,-0.82
2019-01-22T12:14:45.218Z,-0.80
2019-01-22T12:15:45.132Z,-0.77
2019-01-22T12:16:45.046Z,-0.83
2019-01-22T12:17:44.948Z,-0.74
2019-01-22T12:18:44.860Z,-0.77
2019-01-22T12:19:44.772Z,-0.72
2019-01-22T12:20:44.677Z,-0.70
2019-01-22T12:21:44.590Z,-0.70
2019-01-22T12:22:44.501Z,-0.70
2019-01-22T12:23:44.411Z,-0.65
2019-01-22T12:24:44.317Z,-0.61
2019-01-22T12:25:44.223Z,-0.67
2019-01-22T12:26:44.139Z,-0.59
2019-01-22T12:27:44.055Z,-0.57
2019-01-22T12:28:43.956Z,-0.61
2019-01-22T12:29:43.869Z,-0.59
2019-01-22T12:30:43.778Z,-0.57
2019-01-22T12:31:43.689Z,-0.54
2019-01-22T12:32:44.462Z,-0.56
2019-01-22T12:33:43.502Z,-0.53
2019-01-22T12:34:43.431Z,-0.54
2019-01-22T12:35:43.324Z,-0.44
2019-01-22T12:36:43.231Z,-0.53
2019-01-22T12:37:43.159Z,-0.43
2019-01-22T12:38:43.055Z,-0.56
2019-01-22T12:39:42.963Z,-0.52
2019-01-22T12:40:42.871Z,-0.50
2019-01-22T12:41:42.787Z,-0.47
2019-01-22T12:42:42.690Z,-0.43
2019-01-22T12:43:42.601Z,-0.44
2019-01-22T12:44:42.512Z,-0.52
2019-01-22T12:45:42.420Z,-0.44
2019-01-22T12:46:42.333Z,-0.47
2019-01-22T12:47:42.241Z,-0.46
2019-01-22T12:48:42.149Z,-0.38
2019-01-22T12:49:42.100Z,-0.44
2019-01-22T12:50:41.974Z,-0.50
2019-01-22T12:51:41.883Z,-0.39
2019-01-22T12:52:41.807Z,-0.50
2019-01-22T12:53:45.681Z,-0.47
2019-01-22T12:54:41.610Z,-0.44
2019-01-22T12:55:41.528Z,-0.52
2019-01-22T12:56:41.503Z,-0.53
2019-01-22T12:57:41.363Z,-0.54